Time;durP1;ratioP1;P1;durP2;ratioP2;P2;SDS_P1;SDS_P2;PMS_P1;PMS_P2;Temp;Humidity;BMP_temperature;BMP_pressure;BME280_temperature;BME280_humidity;BME280_pressure;Samples;Min_cycle;Max_cycle;Signal;HPM_P1;HPM_P2
2023/07/22 00:00:30;;;;;;;8.68;6.60;;;;;;;12.24;90.37;100706.22;6110252;23;20033;-68
2023/07/22 00:02:56;;;;;;;7.63;6.60;;;;;;;12.49;90.82;100753.00;6115331;23;20573;-67
2023/07/22 00:05:23;;;;;;;7.13;6.53;;;;;;;12.46;90.47;100740.00;6115927;23;20043;-68
2023/07/22 00:07:50;;;;;;;7.22;6.63;;;;;;;12.41;90.74;100741.19;6113591;23;20564;-67
2023/07/22 00:10:16;;;;;;;7.30;6.63;;;;;;;12.16;90.25;100701.38;6090859;23;20029;-67
2023/07/22 00:12:43;;;;;;;7.10;6.47;;;;;;;12.16;89.74;100704.03;6086821;23;20126;-68
2023/07/22 00:15:11;;;;;;;7.93;6.80;;;;;;;12.22;90.45;100713.34;6115241;23;20698;-68
2023/07/22 00:17:40;;;;;;;6.82;6.22;;;;;;;12.35;91.10;100752.97;6078990;23;20020;-67
2023/07/22 00:20:10;;;;;;;6.85;6.20;;;;;;;12.39;91.29;100733.41;6115293;23;20064;-67
2023/07/22 00:22:42;;;;;;;7.32;6.55;;;;;;;12.58;91.43;100747.16;6113574;23;20579;-67
2023/07/22 00:25:11;;;;;;;7.80;6.97;;;;;;;12.70;91.64;100747.38;6114470;23;20052;-68
2023/07/22 00:27:38;;;;;;;7.05;6.45;;;;;;;12.74;91.17;100741.81;6113971;23;20373;-67
2023/07/22 00:30:08;;;;;;;7.07;6.45;;;;;;;12.74;89.92;100723.38;6108897;23;20053;-67
2023/07/22 00:32:37;;;;;;;6.63;6.03;;;;;;;12.20;89.34;100624.94;6108343;23;20088;-68
2023/07/22 00:35:05;;;;;;;7.07;6.47;;;;;;;12.84;89.91;100728.94;6087347;23;20236;-69
2023/07/22 00:37:32;;;;;;;7.68;6.85;;;;;;;12.90;89.99;100730.34;6110507;23;20037;-68
2023/07/22 00:39:58;;;;;;;8.07;6.45;;;;;;;12.90;88.92;100719.81;6108610;23;20104;-68
2023/07/22 00:42:25;;;;;;;6.88;6.07;;;;;;;12.93;88.48;100709.94;6119049;23;20016;-68
2023/07/22 00:44:51;;;;;;;8.07;6.72;;;;;;;13.06;88.32;100723.19;6115714;23;20029;-68
2023/07/22 00:47:19;;;;;;;8.02;6.65;;;;;;;13.12;88.16;100720.19;6104784;23;20077;-68
2023/07/22 00:49:49;;;;;;;7.10;6.50;;;;;;;13.17;87.35;100722.53;6111213;23;20028;-68
2023/07/22 00:52:16;;;;;;;6.60;6.03;;;;;;;13.17;87.03;100709.38;6113816;23;20010;-68
2023/07/22 00:54:44;;;;;;;8.20;7.38;;;;;;;13.13;86.68;100710.50;6112293;23;20037;-68
2023/07/22 00:57:11;;;;;;;7.68;6.57;;;;;;;12.31;87.18;100591.75;6108771;23;20595;-68
2023/07/22 00:59:40;;;;;;;7.25;6.55;;;;;;;13.05;88.40;100723.28;6084581;23;20021;-68
2023/07/22 01:02:06;;;;;;;9.48;6.63;;;;;;;13.01;88.11;100721.78;6108882;23;20073;-69
2023/07/22 01:04:34;;;;;;;7.25;6.60;;;;;;;12.95;88.53;100717.75;6111834;23;20072;-68
2023/07/22 01:07:06;;;;;;;7.38;6.65;;;;;;;12.88;88.16;100719.06;6085660;23;20163;-68
2023/07/22 01:09:39;;;;;;;7.28;6.57;;;;;;;12.77;88.42;100720.56;6111829;23;20037;-69
2023/07/22 01:12:09;;;;;;;8.40;6.82;;;;;;;12.68;89.56;100726.38;6113059;23;20059;-68
2023/07/22 01:14:37;;;;;;;6.93;6.32;;;;;;;12.54;90.72;100737.75;6107731;23;20025;-68
2023/07/22 01:17:10;;;;;;;7.88;6.90;;;;;;;12.43;92.26;100742.81;6114793;23;20344;-69
2023/07/22 01:19:36;;;;;;;;;;;;;;;12.37;93.14;100746.66;6112905;23;20033;-68
2023/07/22 01:22:05;;;;;;;7.95;7.15;;;;;;;12.32;93.30;100740.81;6117080;23;19940;-68
2023/07/22 01:24:32;;;;;;;7.40;6.53;;;;;;;12.12;93.61;100710.41;6086650;23;20029;-68
2023/07/22 01:26:58;;;;;;;7.20;6.50;;;;;;;12.14;94.12;100715.59;6109137;23;20104;-69
2023/07/22 01:29:27;;;;;;;8.05;6.68;;;;;;;12.36;93.76;100746.75;6080175;23;20077;-68
2023/07/22 01:31:54;;;;;;;7.10;6.40;;;;;;;12.18;93.58;100711.84;6109226;23;20060;-67
2023/07/22 01:34:22;;;;;;;7.10;6.40;;;;;;;12.45;92.90;100740.06;6085887;23;20037;-66
2023/07/22 01:36:49;;;;;;;7.85;7.00;;;;;;;12.11;92.02;100689.47;6110976;23;20116;-67
2023/07/22 01:39:16;;;;;;;8.60;7.68;;;;;;;12.51;91.73;100734.47;6105009;23;20021;-66
2023/07/22 01:41:43;;;;;;;6.88;6.28;;;;;;;12.52;91.34;100723.84;6110580;23;20026;-66
2023/07/22 01:44:10;;;;;;;7.43;6.80;;;;;;;12.14;91.39;100665.59;6112219;23;20680;-66
2023/07/22 01:46:37;;;;;;;7.13;5.85;;;;;;;12.60;90.11;100710.22;6110313;23;20018;-66
2023/07/22 01:49:09;;;;;;;6.65;6.15;;;;;;;12.62;89.88;100703.06;6108654;23;20033;-66
2023/07/22 01:51:42;;;;;;;7.25;6.43;;;;;;;12.60;88.58;100702.31;6081606;23;20076;-66
2023/07/22 01:54:10;;;;;;;6.90;6.20;;;;;;;12.58;88.17;100693.66;6080229;23;20029;-67
2023/07/22 01:56:37;;;;;;;6.68;6.07;;;;;;;12.20;88.41;100640.72;6108673;23;20077;-67
2023/07/22 01:59:03;;;;;;;6.82;6.30;;;;;;;12.45;88.77;100690.06;6106975;23;20041;-66
2023/07/22 02:01:30;;;;;;;8.25;6.32;;;;;;;12.46;88.65;100692.63;6111322;23;20467;-67
2023/07/22 02:03:57;;;;;;;7.95;6.55;;;;;;;12.10;88.66;100651.78;6109652;23;20029;-67
2023/07/22 02:06:24;;;;;;;6.45;5.88;;;;;;;12.36;89.19;100702.84;6108828;23;20009;-66
2023/07/22 02:08:51;;;;;;;7.05;6.45;;;;;;;12.33;89.70;100710.94;6110434;23;20553;-66
2023/07/22 02:11:17;;;;;;;6.68;6.00;;;;;;;12.31;89.69;100704.91;6108471;23;20080;-66
2023/07/22 02:13:44;;;;;;;7.07;6.28;;;;;;;12.36;88.57;100708.09;6109977;23;20029;-68
2023/07/22 02:16:11;;;;;;;8.07;7.22;;;;;;;12.12;89.02;100667.47;6109233;23;20021;-67
2023/07/22 02:18:38;;;;;;;8.73;6.72;;;;;;;12.27;89.75;100711.31;6110080;23;20017;-66
2023/07/22 02:21:04;;;;;;;7.45;6.75;;;;;;;12.26;89.51;100717.50;6107987;23;20039;-68
2023/07/22 02:23:31;;;;;;;8.60;7.03;;;;;;;12.28;90.62;100718.25;6105108;23;20106;-67
2023/07/22 02:25:57;;;;;;;7.68;6.03;;;;;;;12.36;90.27;100717.78;6113274;23;20021;-67
2023/07/22 02:28:24;;;;;;;6.80;6.20;;;;;;;12.19;90.58;100695.13;6109084;23;20035;-67
2023/07/22 02:30:52;;;;;;;8.05;7.25;;;;;;;12.41;89.58;100712.25;6109087;23;20037;-67
2023/07/22 02:33:19;;;;;;;7.05;6.35;;;;;;;12.09;89.71;100660.63;6109584;23;20029;-66
2023/07/22 02:35:47;;;;;;;6.80;6.28;;;;;;;12.40;88.91;100700.03;6103583;23;20468;-67
2023/07/22 02:38:14;;;;;;;6.65;5.93;;;;;;;12.42;88.38;100706.06;6105228;23;20025;-67
2023/07/22 02:40:41;;;;;;;8.02;6.65;;;;;;;12.44;87.96;100693.66;6108640;23;20064;-68
2023/07/22 02:43:08;;;;;;;6.82;6.20;;;;;;;12.42;87.87;100701.63;6110201;23;20014;-68
2023/07/22 02:45:36;;;;;;;6.40;5.90;;;;;;;12.46;87.72;100708.41;6116408;23;20039;-68
2023/07/22 02:48:03;;;;;;;7.38;5.50;;;;;;;12.28;87.79;100678.78;6095578;23;20025;-67
2023/07/22 02:50:31;;;;;;;8.70;6.47;;;;;;;12.23;87.68;100670.31;6119534;23;20033;-69
2023/07/22 02:52:57;;;;;;;7.90;6.80;;;;;;;12.45;87.05;100693.56;6107760;23;20021;-67
2023/07/22 02:55:37;;;;;;;7.32;6.05;;;;;;;12.42;87.34;100700.78;5990396;23;20594;-66
2023/07/22 02:58:05;;;;;;;6.47;5.82;;;;;;;12.38;86.98;100703.59;6025069;23;20187;-67
2023/07/22 03:00:32;;;;;;;6.63;5.68;;;;;;;12.34;87.21;100706.50;5995271;23;21607;-67
2023/07/22 03:03:01;;;;;;;9.73;6.68;;;;;;;12.15;86.99;100693.63;6024027;23;20038;-67
2023/07/22 03:05:29;;;;;;;7.13;6.53;;;;;;;12.23;87.95;100707.16;5998184;23;20039;-68
2023/07/22 03:07:56;;;;;;;7.38;6.55;;;;;;;12.18;88.04;100714.47;6024815;23;21027;-67
2023/07/22 03:10:25;;;;;;;6.90;6.20;;;;;;;12.14;88.50;100720.84;5997628;23;20097;-67
2023/07/22 03:12:55;;;;;;;7.10;6.40;;;;;;;11.96;88.28;100696.44;6022867;23;20106;-67
2023/07/22 03:15:22;;;;;;;6.72;6.10;;;;;;;11.69;89.30;100672.59;5997357;23;20039;-67
2023/07/22 03:17:49;;;;;;;6.53;5.93;;;;;;;12.00;89.84;100740.06;6025546;23;20049;-66
2023/07/22 03:20:18;;;;;;;7.20;6.50;;;;;;;11.80;90.21;100708.75;5999526;23;20414;-67
2023/07/22 03:22:45;;;;;;;7.43;6.13;;;;;;;11.89;89.99;100731.94;6021999;23;20026;-67
2023/07/22 03:25:14;;;;;;;6.72;6.15;;;;;;;11.76;90.30;100724.69;5993348;23;20031;-68
2023/07/22 03:27:41;;;;;;;7.07;6.38;;;;;;;11.71;90.84;100741.69;6109275;23;20461;-66
2023/07/22 03:30:07;;;;;;;7.50;6.75;;;;;;;11.65;91.72;100747.28;6116777;23;20084;-67
2023/07/22 03:32:34;;;;;;;7.10;6.40;;;;;;;11.60;92.49;100747.53;6089840;23;20033;-67
2023/07/22 03:35:01;;;;;;;6.60;6.00;;;;;;;11.50;92.88;100747.19;6107729;23;20021;-67
2023/07/22 03:37:29;;;;;;;6.45;5.80;;;;;;;11.04;93.54;100689.28;6109567;23;20371;-67
2023/07/22 03:39:55;;;;;;;9.00;6.63;;;;;;;11.05;94.13;100705.91;6113605;23;20569;-67
2023/07/22 03:42:22;;;;;;;8.50;5.72;;;;;;;11.35;94.87;100769.91;6092168;23;20049;-68
2023/07/22 03:44:48;;;;;;;6.78;6.18;;;;;;;11.34;96.45;100785.75;6114277;23;20031;-68
2023/07/22 03:47:14;;;;;;;6.30;5.70;;;;;;;11.27;97.16;100766.00;6113617;23;20063;-67
2023/07/22 03:49:41;;;;;;;7.07;6.38;;;;;;;11.38;97.64;100782.03;6115652;23;20082;-66
2023/07/22 03:52:07;;;;;;;7.32;6.20;;;;;;;11.41;98.06;100795.00;6114404;23;20618;-67
2023/07/22 03:54:34;;;;;;;7.40;6.10;;;;;;;11.47;98.48;100785.97;6092907;23;20030;-67
2023/07/22 03:57:01;;;;;;;6.43;5.82;;;;;;;11.55;98.52;100797.75;6109483;23;20041;-68
2023/07/22 03:59:28;;;;;;;6.60;6.00;;;;;;;11.68;98.35;100797.91;6109794;23;20031;-65
2023/07/22 04:01:55;;;;;;;6.78;6.18;;;;;;;11.77;98.91;100807.91;6084721;23;20017;-69
2023/07/22 04:04:21;;;;;;;7.35;6.20;;;;;;;11.84;98.07;100795.25;6112691;23;20726;-65
2023/07/22 04:06:47;;;;;;;6.55;5.95;;;;;;;11.92;97.92;100800.97;6111421;23;20057;-66
2023/07/22 04:09:14;;;;;;;6.93;6.32;;;;;;;11.93;97.46;100807.94;6112378;23;20049;-66
2023/07/22 04:11:40;;;;;;;6.55;5.93;;;;;;;11.98;97.55;100808.50;6116310;23;20619;-67
2023/07/22 04:14:07;;;;;;;7.30;6.20;;;;;;;11.86;97.33;100775.00;6097261;23;20014;-66
2023/07/22 04:16:33;;;;;;;7.20;6.00;;;;;;;12.03;96.59;100796.88;6085994;23;20646;-65
2023/07/22 04:19:00;;;;;;;7.97;6.20;;;;;;;11.94;96.24;100771.97;6113303;23;20029;-66
2023/07/22 04:21:26;;;;;;;6.03;5.63;;;;;;;12.11;96.63;100813.94;6089946;23;20085;-66
2023/07/22 04:23:53;;;;;;;7.40;6.70;;;;;;;12.14;97.36;100797.13;6111409;23;20021;-66
2023/07/22 04:26:20;;;;;;;6.70;6.10;;;;;;;12.18;96.16;100796.88;6083986;23;20013;-68
2023/07/22 04:28:46;;;;;;;7.18;6.57;;;;;;;12.29;95.58;100798.06;6112126;23;20030;-67
2023/07/22 04:31:13;;;;;;;7.75;6.63;;;;;;;12.31;95.44;100796.19;6111469;23;20471;-67
2023/07/22 04:33:41;;;;;;;6.95;6.30;;;;;;;12.33;95.02;100800.41;6115447;23;20030;-67
2023/07/22 04:36:07;;;;;;;6.68;6.13;;;;;;;12.37;94.59;100806.34;6086106;23;20112;-68
2023/07/22 04:38:34;;;;;;;7.18;6.47;;;;;;;12.37;94.36;100798.47;6110458;23;20084;-66
2023/07/22 04:41:03;;;;;;;6.65;6.07;;;;;;;12.31;94.16;100797.03;6085077;23;20062;-67
2023/07/22 04:43:32;;;;;;;6.47;5.95;;;;;;;12.13;93.92;100756.84;6114826;23;20029;-68
2023/07/22 04:45:59;;;;;;;7.25;6.63;;;;;;;12.37;93.70;100798.47;6107425;23;20052;-67
2023/07/22 04:48:26;;;;;;;7.15;6.45;;;;;;;12.35;94.41;100809.06;6113630;23;20037;-68
2023/07/22 04:50:52;;;;;;;6.90;6.20;;;;;;;12.37;95.01;100809.81;6111967;23;20057;-65
2023/07/22 04:53:19;;;;;;;8.30;6.65;;;;;;;12.45;94.64;100825.19;6112876;23;20052;-65
2023/07/22 04:55:45;;;;;;;8.80;6.60;;;;;;;12.56;94.35;100820.13;6113122;23;20053;-65
2023/07/22 04:58:12;;;;;;;8.23;6.95;;;;;;;12.34;94.02;100769.66;6107752;23;20041;-66
2023/07/22 05:00:38;;;;;;;7.22;6.63;;;;;;;12.69;93.48;100814.13;6092842;23;20030;-66
2023/07/22 05:03:05;;;;;;;8.20;6.38;;;;;;;12.77;92.98;100818.03;6110889;23;20618;-68
2023/07/22 05:05:32;;;;;;;6.50;5.90;;;;;;;12.56;93.23;100761.34;6083951;23;20033;-68
2023/07/22 05:07:59;;;;;;;6.90;6.40;;;;;;;12.85;91.46;100775.41;6108357;23;20029;-66
2023/07/22 05:10:25;;;;;;;6.80;6.28;;;;;;;12.01;90.85;100619.91;6113792;23;20021;-66
2023/07/22 05:12:52;;;;;;;7.18;6.55;;;;;;;13.05;90.24;100753.13;6112788;23;20033;-67
2023/07/22 05:15:18;;;;;;;6.60;6.00;;;;;;;13.41;89.55;100804.53;6066575;23;20113;-66
2023/07/22 05:17:45;;;;;;;6.90;6.30;;;;;;;13.58;88.34;100795.56;6112056;23;20076;-66
2023/07/22 05:20:12;;;;;;;7.95;6.18;;;;;;;13.33;87.26;100732.97;6111498;23;20032;-66
2023/07/22 05:22:39;;;;;;;7.70;6.53;;;;;;;13.54;86.64;100749.22;6081784;23;20484;-66
2023/07/22 05:25:07;;;;;;;8.80;6.20;;;;;;;13.88;86.20;100765.53;6108713;23;20056;-67
2023/07/22 05:27:33;;;;;;;6.50;6.00;;;;;;;14.16;85.43;100773.31;6112980;23;20031;-70
2023/07/22 05:30:00;;;;;;;7.22;6.63;;;;;;;14.46;84.28;100781.94;6112074;23;20044;-66
2023/07/22 05:32:28;;;;;;;7.35;6.32;;;;;;;14.63;82.13;100759.69;6111767;23;20108;-66
2023/07/22 05:35:01;;;;;;;6.60;6.10;;;;;;;14.64;80.57;100732.34;6110614;23;20351;-66
2023/07/22 05:37:27;;;;;;;6.30;5.90;;;;;;;14.75;80.02;100719.22;6086084;23;20161;-66
2023/07/22 05:39:54;;;;;;;6.55;6.00;;;;;;;15.25;78.19;100735.13;6108058;23;20024;-66
2023/07/22 05:42:20;;;;;;;7.13;6.60;;;;;;;15.35;77.14;100710.59;6111376;23;20053;-66
2023/07/22 05:44:48;;;;;;;7.10;6.55;;;;;;;15.84;75.96;100732.63;6097953;23;20205;-66
2023/07/22 05:47:14;;;;;;;7.10;6.13;;;;;;;15.93;73.41;100667.56;6106629;23;20684;-66
2023/07/22 05:49:44;;;;;;;7.80;7.07;;;;;;;14.28;72.17;100356.38;6109868;23;20606;-66
2023/07/22 05:52:11;;;;;;;7.20;6.30;;;;;;;16.38;72.53;100674.78;6087122;23;20034;-66
2023/07/22 05:54:37;;;;;;;6.57;6.00;;;;;;;16.34;71.60;100663.59;6110011;23;20074;-66
2023/07/22 05:57:04;;;;;;;7.35;6.65;;;;;;;15.70;71.00;100550.22;6086692;23;20413;-67
2023/07/22 05:59:31;;;;;;;7.60;6.80;;;;;;;16.12;71.39;100635.28;6107288;23;20017;-67
2023/07/22 06:01:58;;;;;;;6.97;6.40;;;;;;;16.64;70.94;100665.66;6101897;23;20547;-66
2023/07/22 06:04:24;;;;;;;6.90;6.28;;;;;;;17.07;69.44;100662.28;6114677;23;20010;-67
2023/07/22 06:06:51;;;;;;;7.45;6.85;;;;;;;16.65;68.54;100540.16;6111622;23;20041;-66
2023/07/22 06:09:17;;;;;;;7.05;6.38;;;;;;;16.86;67.98;100585.34;6107097;23;20045;-66
2023/07/22 06:11:43;;;;;;;6.75;6.25;;;;;;;16.93;69.29;100615.66;6086659;23;20030;-66
2023/07/22 06:14:10;;;;;;;6.93;6.35;;;;;;;16.68;68.40;100566.41;6108088;23;20029;-66
2023/07/22 06:16:36;;;;;;;7.55;6.82;;;;;;;17.05;68.14;100605.06;6087012;23;20113;-65
2023/07/22 06:19:03;;;;;;;6.97;6.47;;;;;;;17.66;67.70;100637.16;6116133;23;20041;-68
2023/07/22 06:21:30;;;;;;;7.40;6.80;;;;;;;18.70;64.50;100624.81;6094561;23;20017;-66
2023/07/22 06:23:59;;;;;;;8.68;7.05;;;;;;;19.20;61.19;100514.03;6112982;23;20031;-65
2023/07/22 06:26:25;;;;;;;7.45;6.85;;;;;;;19.58;59.13;100480.38;6115994;23;20048;-67
2023/07/22 06:28:52;;;;;;;7.25;6.65;;;;;;;19.45;58.34;100420.31;6088371;23;20036;-66
2023/07/22 06:31:18;;;;;;;6.60;6.10;;;;;;;19.81;57.28;100441.81;6114214;23;20021;-66
2023/07/22 06:33:45;;;;;;;6.95;6.30;;;;;;;19.90;56.80;100424.09;6093450;23;20047;-66
2023/07/22 06:36:11;;;;;;;7.80;7.20;;;;;;;19.92;56.95;100423.00;6112058;23;20025;-66
2023/07/22 06:38:38;;;;;;;6.68;6.18;;;;;;;20.02;55.51;100393.63;6084772;23;20049;-65
2023/07/22 06:41:04;;;;;;;7.55;6.80;;;;;;;19.67;55.63;100330.44;6109864;23;20034;-66
2023/07/22 06:43:31;;;;;;;6.93;6.43;;;;;;;20.19;55.82;100417.81;6107999;23;20010;-65
2023/07/22 06:45:57;;;;;;;7.15;6.43;;;;;;;19.90;55.03;100368.16;6085615;23;20054;-67
2023/07/22 06:48:23;;;;;;;7.15;6.57;;;;;;;19.68;55.91;100388.00;6112421;23;20155;-66
2023/07/22 06:50:50;;;;;;;7.00;6.50;;;;;;;19.72;56.28;100424.03;6111728;23;20028;-66
2023/07/22 06:53:16;;;;;;;9.55;6.47;;;;;;;19.60;55.99;100420.69;6112053;23;20657;-66
2023/07/22 06:55:51;;;;;;;7.43;6.72;;;;;;;19.25;57.09;100443.47;6114831;23;20029;-66
2023/07/22 06:58:22;;;;;;;7.30;6.60;;;;;;;19.04;57.24;100427.69;6088799;23;20045;-66
2023/07/22 07:00:57;;;;;;;7.03;6.53;;;;;;;19.15;57.41;100457.78;6112452;23;20041;-67
2023/07/22 07:03:24;;;;;;;7.10;6.35;;;;;;;19.26;57.67;100503.69;6108873;23;20627;-66
2023/07/22 07:05:54;;;;;;;6.90;6.30;;;;;;;19.29;58.08;100518.53;6109776;23;20637;-66
2023/07/22 07:08:21;;;;;;;6.93;6.43;;;;;;;19.19;57.47;100469.81;6112965;23;20048;-66
2023/07/22 07:10:48;;;;;;;7.57;6.90;;;;;;;19.04;58.06;100483.53;6115475;23;20058;-66
2023/07/22 07:13:15;;;;;;;8.00;7.20;;;;;;;18.98;58.21;100505.34;6111161;23;20608;-65
2023/07/22 07:15:41;;;;;;;7.20;6.60;;;;;;;18.46;58.68;100443.56;6087312;23;20053;-66
2023/07/22 07:18:07;;;;;;;7.32;6.72;;;;;;;19.00;58.75;100553.94;6111481;23;20034;-66
2023/07/22 07:20:34;;;;;;;7.30;6.63;;;;;;;19.16;58.46;100548.06;6109866;23;20021;-66
2023/07/22 07:23:00;;;;;;;7.93;7.22;;;;;;;19.09;57.60;100489.28;6110294;23;20033;-66
2023/07/22 07:25:27;;;;;;;13.45;7.22;;;;;;;19.56;57.39;100539.09;6102455;23;20092;-67
2023/07/22 07:27:53;;;;;;;7.90;7.20;;;;;;;19.90;57.04;100558.09;6110757;23;20049;-66
2023/07/22 07:30:19;;;;;;;7.25;6.68;;;;;;;19.96;56.58;100537.22;6111785;23;20025;-67
2023/07/22 07:32:46;;;;;;;7.75;7.05;;;;;;;20.05;55.89;100518.53;6109531;23;20019;-67
2023/07/22 07:35:13;;;;;;;8.07;7.40;;;;;;;19.95;55.13;100463.63;6104060;23;20736;-67
2023/07/22 07:37:39;;;;;;;8.35;7.60;;;;;;;20.13;55.45;100518.66;6082396;23;20429;-67
2023/07/22 07:40:06;;;;;;;7.63;6.82;;;;;;;20.19;54.96;100503.91;6109243;23;20050;-67
2023/07/22 07:42:33;;;;;;;7.85;7.15;;;;;;;19.91;55.62;100517.19;6113555;23;20049;-67
2023/07/22 07:44:59;;;;;;;7.82;7.22;;;;;;;19.67;56.23;100503.50;6111601;23;20024;-68
2023/07/22 07:47:28;;;;;;;7.60;7.00;;;;;;;19.89;56.33;100551.13;6084519;23;20081;-70
2023/07/22 07:49:54;;;;;;;8.13;7.40;;;;;;;20.13;55.32;100544.47;6110143;23;20054;-67
2023/07/22 07:52:21;;;;;;;7.80;7.00;;;;;;;20.42;55.30;100562.13;6089363;23;20131;-68
2023/07/22 07:54:47;;;;;;;7.60;7.10;;;;;;;20.15;54.91;100507.00;6107264;23;20030;-66
2023/07/22 07:57:14;;;;;;;7.63;6.93;;;;;;;20.33;54.71;100514.06;6092992;23;20022;-67
2023/07/22 07:59:40;;;;;;;8.10;7.25;;;;;;;20.14;53.42;100439.53;6089549;23;20040;-70
2023/07/22 08:02:09;;;;;;;8.73;7.70;;;;;;;20.10;54.55;100486.94;6111392;23;20024;-67
2023/07/22 08:04:36;;;;;;;7.55;6.88;;;;;;;20.04;54.41;100487.53;6086788;23;20573;-67
2023/07/22 08:07:04;;;;;;;7.75;7.10;;;;;;;20.67;54.20;100542.00;6107327;23;20020;-67
2023/07/22 08:09:30;;;;;;;8.10;7.30;;;;;;;21.03;53.56;100550.03;6111749;23;20021;-68
2023/07/22 08:11:57;;;;;;;8.65;7.82;;;;;;;21.17;52.53;100465.91;6108102;23;20029;-68
2023/07/22 08:14:23;;;;;;;8.30;7.50;;;;;;;20.98;51.80;100459.75;6111441;23;20029;-67
2023/07/22 08:16:49;;;;;;;8.10;7.35;;;;;;;21.44;51.18;100467.66;6112414;23;20137;-67
2023/07/22 08:19:16;;;;;;;7.93;7.32;;;;;;;21.36;50.66;100414.19;6105764;23;20026;-66
2023/07/22 08:21:42;;;;;;;7.93;7.32;;;;;;;21.83;50.51;100497.47;6111110;23;20053;-66
2023/07/22 08:24:09;;;;;;;8.13;7.43;;;;;;;22.08;50.13;100517.13;6110192;23;20052;-66
2023/07/22 08:26:35;;;;;;;7.97;7.28;;;;;;;21.88;50.62;100481.78;6108525;23;20025;-66
2023/07/22 08:29:02;;;;;;;9.15;7.82;;;;;;;22.04;50.06;100456.13;6081433;23;20032;-67
2023/07/22 08:31:28;;;;;;;8.55;7.70;;;;;;;22.20;49.31;100472.25;6086838;23;20032;-68
2023/07/22 08:33:55;;;;;;;8.30;7.47;;;;;;;22.26;49.23;100439.53;6111386;23;20029;-65
2023/07/22 08:36:21;;;;;;;9.30;8.40;;;;;;;22.43;48.59;100440.44;6083437;23;20025;-67
2023/07/22 08:38:48;;;;;;;9.02;8.10;;;;;;;22.70;47.77;100380.44;6083126;23;20033;-67
2023/07/22 08:41:16;;;;;;;8.93;8.10;;;;;;;20.32;49.65;100211.22;6081509;23;20094;-67
2023/07/22 08:43:47;;;;;;;8.20;7.40;;;;;;;21.55;49.74;100416.69;6110936;23;20634;-66
2023/07/22 08:46:15;;;;;;;8.85;8.18;;;;;;;22.50;49.01;100494.94;6077205;23;20040;-66
2023/07/22 08:48:46;;;;;;;8.60;7.70;;;;;;;22.87;47.90;100445.50;6110923;23;20006;-66
2023/07/22 08:51:18;;;;;;;8.52;7.65;;;;;;;22.32;48.14;100389.94;6080651;23;20088;-66
2023/07/22 08:53:46;;;;;;;8.23;7.43;;;;;;;22.25;47.70;100367.53;6110281;23;20053;-66
2023/07/22 08:56:31;;;;;;;9.75;7.22;;;;;;;22.49;47.54;100415.72;6109866;23;20066;-68
2023/07/22 08:58:57;;;;;;;9.65;7.20;;;;;;;22.10;47.84;100340.56;6111293;23;20102;-66
2023/07/22 09:01:24;;;;;;;7.35;6.75;;;;;;;22.63;47.54;100410.69;6110175;23;20073;-65
2023/07/22 09:03:52;;;;;;;7.70;7.10;;;;;;;22.92;46.63;100404.88;6088328;23;20981;-65
2023/07/22 09:06:19;;;;;;;7.57;6.97;;;;;;;23.10;45.99;100394.00;6107038;23;20772;-66
2023/07/22 09:08:46;;;;;;;7.65;7.10;;;;;;;22.06;47.30;100267.06;6086564;23;20029;-66
2023/07/22 09:11:12;;;;;;;7.75;7.13;;;;;;;22.00;47.97;100355.91;6107631;23;20025;-66
2023/07/22 09:13:41;;;;;;;7.40;6.88;;;;;;;22.48;46.80;100411.34;6115048;23;20049;-66
2023/07/22 09:16:08;;;;;;;7.60;6.90;;;;;;;22.49;47.04;100375.59;6117675;23;20030;-66
2023/07/22 09:18:34;;;;;;;7.38;6.75;;;;;;;22.94;45.97;100439.50;6083059;23;20034;-66
2023/07/22 09:21:01;;;;;;;6.75;6.25;;;;;;;22.64;45.18;100246.53;6112297;23;20634;-66
2023/07/22 09:23:38;;;;;;;7.00;6.50;;;;;;;21.78;46.29;100250.50;6119436;23;20036;-65
2023/07/22 09:26:23;;;;;;;6.55;6.13;;;;;;;22.04;45.98;100290.47;6088461;23;20647;-66
2023/07/22 09:28:56;;;;;;;6.97;6.47;;;;;;;21.70;45.69;100244.13;6111091;23;20704;-65
2023/07/22 09:31:25;;;;;;;6.38;5.97;;;;;;;22.16;45.53;100334.56;6110268;23;20071;-66
2023/07/22 09:33:54;;;;;;;6.85;6.40;;;;;;;21.92;45.43;100242.66;6109981;23;20071;-65
2023/07/22 09:36:20;;;;;;;7.05;6.55;;;;;;;22.13;45.52;100318.03;6106484;23;20017;-65
2023/07/22 09:39:02;;;;;;;7.40;6.82;;;;;;;22.38;44.75;100343.81;6107003;23;20468;-66
2023/07/22 09:41:30;;;;;;;7.05;6.55;;;;;;;22.56;44.14;100314.25;6107297;23;20669;-66
2023/07/22 09:43:56;;;;;;;6.78;6.25;;;;;;;23.03;43.62;100310.03;6106775;23;20056;-66
2023/07/22 09:46:31;;;;;;;7.00;6.47;;;;;;;23.12;43.03;100319.72;6110633;23;20599;-66
2023/07/22 09:49:03;;;;;;;6.72;6.20;;;;;;;22.96;42.56;100202.00;6107225;23;20044;-66
2023/07/22 09:51:37;;;;;;;7.17;6.67;;;;;;;23.12;43.02;100367.91;6114806;23;20616;-66
2023/07/22 09:54:22;;;;;;;7.05;6.53;;;;;;;23.50;41.59;100261.03;6111622;23;20514;-65
2023/07/22 09:56:50;;;;;;;6.80;6.40;;;;;;;23.10;42.25;100268.22;6111329;23;20411;-66
2023/07/22 09:59:19;;;;;;;6.63;6.22;;;;;;;23.37;41.98;100347.25;6115068;23;20036;-65
2023/07/22 10:01:47;;;;;;;6.50;6.10;;;;;;;23.37;42.51;100355.28;6087738;23;20024;-65
2023/07/22 10:04:16;;;;;;;7.30;6.68;;;;;;;23.24;43.08;100357.69;6115243;23;20038;-65
2023/07/22 10:06:43;;;;;;;7.07;6.57;;;;;;;23.60;41.91;100397.44;6119396;23;20720;-67
2023/07/22 10:09:12;;;;;;;6.90;6.40;;;;;;;23.68;41.16;100343.81;6112158;23;20044;-66
2023/07/22 10:11:39;;;;;;;6.70;6.20;;;;;;;23.70;39.59;100296.25;6113431;23;20033;-66
2023/07/22 10:14:06;;;;;;;6.60;6.20;;;;;;;23.66;39.58;100278.84;6091175;23;20029;-65
2023/07/22 10:16:33;;;;;;;6.78;6.22;;;;;;;23.20;41.19;100286.75;6115248;23;20013;-66
2023/07/22 10:19:00;;;;;;;6.78;6.38;;;;;;;23.25;41.18;100332.56;6127449;23;20029;-65
2023/07/22 10:21:28;;;;;;;6.57;6.18;;;;;;;23.43;41.84;100392.13;6123983;23;20021;-65
2023/07/22 10:23:57;;;;;;;6.53;6.03;;;;;;;23.04;42.28;100357.22;6117783;23;20040;-66
2023/07/22 10:26:24;;;;;;;6.13;5.82;;;;;;;23.08;42.87;100399.53;6113834;23;20468;-65
2023/07/22 10:29:14;;;;;;;6.50;6.10;;;;;;;23.41;42.08;100423.56;6113158;23;20468;-65
2023/07/22 10:31:41;;;;;;;6.70;6.22;;;;;;;23.56;42.19;100428.25;6061828;23;20443;-67
2023/07/22 10:34:08;;;;;;;6.80;6.10;;;;;;;23.08;41.60;100364.72;6114200;23;20026;-66
2023/07/22 10:36:35;;;;;;;6.07;5.75;;;;;;;23.34;41.89;100366.34;6086474;23;20573;-66
2023/07/22 10:39:02;;;;;;;6.85;6.30;;;;;;;23.59;42.23;100460.03;6107088;23;20041;-66
2023/07/22 10:41:31;;;;;;;6.60;6.00;;;;;;;23.81;41.45;100424.50;6083638;23;20059;-67
2023/07/22 10:43:59;;;;;;;6.85;6.32;;;;;;;23.45;41.74;100416.88;6108567;23;20044;-66
2023/07/22 10:46:33;;;;;;;6.75;6.35;;;;;;;23.71;42.05;100469.38;6112105;23;20094;-67
2023/07/22 10:49:15;;;;;;;7.10;6.57;;;;;;;24.14;42.42;100520.88;6091547;23;20025;-66
2023/07/22 10:51:51;;;;;;;6.45;5.95;;;;;;;24.20;39.85;100366.53;6117385;23;20038;-67
2023/07/22 10:54:36;;;;;;;7.05;6.50;;;;;;;24.28;39.99;100410.19;6110412;23;20014;-66
2023/07/22 10:57:04;;;;;;;6.30;5.90;;;;;;;24.18;39.03;100322.97;6110549;23;20771;-66
2023/07/22 10:59:34;;;;;;;6.10;5.80;;;;;;;23.87;39.07;100248.75;6089495;23;20041;-66
2023/07/22 11:02:00;;;;;;;6.28;5.90;;;;;;;24.14;38.38;100298.34;6087050;23;20618;-66
2023/07/22 11:04:35;;;;;;;6.70;6.30;;;;;;;24.48;37.98;100345.38;6117357;23;20534;-66
2023/07/22 11:07:32;;;;;;;6.65;6.10;;;;;;;25.00;38.05;100379.50;6114820;23;20052;-67
2023/07/22 11:10:11;;;;;;;6.55;6.15;;;;;;;25.16;37.86;100365.09;6112172;23;20018;-66
2023/07/22 11:12:38;;;;;;;6.60;6.20;;;;;;;25.08;37.96;100359.81;6111439;23;20030;-66
2023/07/22 11:15:08;;;;;;;7.07;6.53;;;;;;;24.64;38.57;100353.31;6084274;23;20559;-66
2023/07/22 11:17:35;;;;;;;6.60;6.20;;;;;;;25.42;37.73;100369.22;6113531;23;20048;-66
2023/07/22 11:20:02;;;;;;;6.50;6.10;;;;;;;25.53;36.26;100298.03;6113116;23;20125;-66
2023/07/22 11:22:29;;;;;;;6.60;6.20;;;;;;;24.93;36.23;100190.66;6112682;23;20029;-67
2023/07/22 11:25:00;;;;;;;6.70;6.20;;;;;;;25.00;36.41;100301.66;6112550;23;20085;-66
2023/07/22 11:27:26;;;;;;;6.55;6.15;;;;;;;24.99;35.75;100234.72;6106679;23;20018;-67